Stem, North Carolina
Current Conditions -  °F | °C
As of 4:15 AM on Friday 24 Oct 2014 (Local Time) from KHNZ Reporting Station
Clear Clear  
Wind Chill: 47°   Ceiling: Unl
Heat Index: 49°   Visibility: 10mi
Dew Point: 39°   Wind: 5mph
Humidity: 71%   Direction: 300°WNW
Pressure: 30"   Gusts: NA
Location:  36.2°N, 78.72°W
Report Text: KHNZ 240815Z AUTO 30004KT 10SM CLR 09/04 A3000 RMK AO2 T00920041
Loading
Personal Weather Stations






























Interactive Weather Map
Tropical Storm Tracking
New forecast layout! Learn more

10-Day Weather Forecast

Advertisements
Track Severe Weather on mobile